createdAt,value
2022-10-02T00:00:05.661Z,20.05
2022-10-02T00:00:15.660Z,20.07
2022-10-02T00:00:25.660Z,20.05
2022-10-02T00:00:35.692Z,20.06
2022-10-02T00:00:45.662Z,20.04
2022-10-02T00:00:55.661Z,20.06
2022-10-02T00:01:05.694Z,20.06
2022-10-02T00:01:15.688Z,20.06
2022-10-02T00:01:25.705Z,20.06
2022-10-02T00:01:35.696Z,20.06
2022-10-02T00:01:45.766Z,20.08
2022-10-02T00:01:55.754Z,20.05
2022-10-02T00:02:05.677Z,20.08
2022-10-02T00:02:15.669Z,20.06
2022-10-02T00:02:25.673Z,20.07
2022-10-02T00:02:35.672Z,20.05
2022-10-02T00:02:45.673Z,20.08
2022-10-02T00:02:55.673Z,20.09
2022-10-02T00:03:05.676Z,20.08
2022-10-02T00:03:15.678Z,20.08
2022-10-02T00:03:25.674Z,20.06
2022-10-02T00:03:35.676Z,20.08
2022-10-02T00:03:45.677Z,20.10
2022-10-02T00:03:55.716Z,20.06
2022-10-02T00:04:05.756Z,20.08
2022-10-02T00:04:15.746Z,20.07
2022-10-02T00:04:25.802Z,20.08
2022-10-02T00:04:35.727Z,20.09
2022-10-02T00:04:45.683Z,20.09
2022-10-02T00:04:55.686Z,20.09
2022-10-02T00:05:05.686Z,20.10
2022-10-02T00:05:15.690Z,20.09
2022-10-02T00:05:25.689Z,20.09
2022-10-02T00:05:35.735Z,20.08
2022-10-02T00:05:45.690Z,20.08
2022-10-02T00:05:55.690Z,20.08
2022-10-02T00:06:05.691Z,20.08
2022-10-02T00:06:15.693Z,20.10
2022-10-02T00:06:25.695Z,20.09
2022-10-02T00:06:35.975Z,20.09
2022-10-02T00:06:45.695Z,20.08
2022-10-02T00:06:55.695Z,20.10
2022-10-02T00:07:05.697Z,20.10
2022-10-02T00:07:15.699Z,20.10
2022-10-02T00:07:25.699Z,20.09
2022-10-02T00:07:35.702Z,20.09
2022-10-02T00:07:45.701Z,20.08
2022-10-02T00:07:55.709Z,20.09
2022-10-02T00:08:05.704Z,20.10
2022-10-02T00:08:15.705Z,20.09
2022-10-02T00:08:25.704Z,20.10
2022-10-02T00:08:35.704Z,20.09
2022-10-02T00:08:45.708Z,20.08
2022-10-02T00:08:55.709Z,20.09
2022-10-02T00:09:05.702Z,20.09
2022-10-02T00:09:15.710Z,20.08
2022-10-02T00:09:25.709Z,20.09
2022-10-02T00:09:35.711Z,20.07
2022-10-02T00:09:45.709Z,20.09
2022-10-02T00:09:55.712Z,20.10
2022-10-02T00:10:05.713Z,20.10
2022-10-02T00:10:15.715Z,20.10
2022-10-02T00:10:25.716Z,20.09
2022-10-02T00:10:35.716Z,20.09
2022-10-02T00:10:45.701Z,20.08
2022-10-02T00:10:55.719Z,20.09
2022-10-02T00:11:05.717Z,20.09
2022-10-02T00:11:15.716Z,20.10
2022-10-02T00:11:25.724Z,20.08
2022-10-02T00:11:35.724Z,20.09
2022-10-02T00:11:45.722Z,20.10
2022-10-02T00:11:55.726Z,20.08
2022-10-02T00:12:05.727Z,20.10
2022-10-02T00:12:15.711Z,20.10
2022-10-02T00:12:25.730Z,20.07
2022-10-02T00:12:35.728Z,20.09
2022-10-02T00:12:45.732Z,20.10
2022-10-02T00:12:55.711Z,20.09
2022-10-02T00:13:05.730Z,20.10
2022-10-02T00:13:15.736Z,20.07
2022-10-02T00:13:25.736Z,20.09
2022-10-02T00:13:35.733Z,20.08
2022-10-02T00:13:45.733Z,20.09
2022-10-02T00:13:55.734Z,20.09
2022-10-02T00:14:05.741Z,20.08
2022-10-02T00:14:15.737Z,20.10
2022-10-02T00:14:25.738Z,20.09
2022-10-02T00:14:35.740Z,20.10
2022-10-02T00:14:45.738Z,20.09
2022-10-02T00:14:55.745Z,20.08
2022-10-02T00:15:05.741Z,20.08
2022-10-02T00:15:15.747Z,20.08
2022-10-02T00:15:25.727Z,20.08
2022-10-02T00:15:35.749Z,20.08
2022-10-02T00:15:45.750Z,20.08
2022-10-02T00:15:55.751Z,20.08
2022-10-02T00:16:05.769Z,20.09
2022-10-02T00:16:15.785Z,20.10
2022-10-02T00:16:25.794Z,20.09
2022-10-02T00:16:35.999Z,20.10
2022-10-02T00:16:45.820Z,20.10
2022-10-02T00:16:55.780Z,20.09
2022-10-02T00:17:05.753Z,20.08
2022-10-02T00:17:15.753Z,20.08
2022-10-02T00:17:25.755Z,20.08
2022-10-02T00:17:35.757Z,20.09
2022-10-02T00:17:45.756Z,20.09
2022-10-02T00:17:55.758Z,20.08
2022-10-02T00:18:05.760Z,20.09
2022-10-02T00:18:15.759Z,20.09
2022-10-02T00:18:25.760Z,20.08
2022-10-02T00:18:35.761Z,20.09
2022-10-02T00:18:45.764Z,20.09
2022-10-02T00:18:55.765Z,20.09
2022-10-02T00:19:05.765Z,20.09
2022-10-02T00:19:15.767Z,20.08
2022-10-02T00:19:25.767Z,20.08
2022-10-02T00:19:35.766Z,20.07
2022-10-02T00:19:45.769Z,20.09
2022-10-02T00:19:55.766Z,20.09
2022-10-02T00:20:05.778Z,20.09
2022-10-02T00:20:15.771Z,20.07
2022-10-02T00:20:25.772Z,20.08
2022-10-02T00:20:35.772Z,20.09
2022-10-02T00:20:45.777Z,20.08
2022-10-02T00:20:55.776Z,20.08
2022-10-02T00:21:05.777Z,20.09
2022-10-02T00:21:15.776Z,20.07
2022-10-02T00:21:25.776Z,20.09
2022-10-02T00:21:35.779Z,20.08
2022-10-02T00:21:45.779Z,20.09
2022-10-02T00:21:55.780Z,20.09
2022-10-02T00:22:05.783Z,20.08
2022-10-02T00:22:15.783Z,20.08
2022-10-02T00:22:25.788Z,20.09
2022-10-02T00:22:35.787Z,20.11
2022-10-02T00:22:45.789Z,20.08
2022-10-02T00:22:55.784Z,20.08
2022-10-02T00:23:05.789Z,20.08
2022-10-02T00:23:15.793Z,20.10
2022-10-02T00:23:25.790Z,20.09
2022-10-02T00:23:35.772Z,20.08
2022-10-02T00:23:45.792Z,20.08
2022-10-02T00:23:55.794Z,20.09
2022-10-02T00:24:05.796Z,20.08
2022-10-02T00:24:15.802Z,20.08
2022-10-02T00:24:25.797Z,20.09
2022-10-02T00:24:35.795Z,20.09
2022-10-02T00:24:45.807Z,20.10
2022-10-02T00:24:55.799Z,20.09
2022-10-02T00:25:05.800Z,20.10
2022-10-02T00:25:15.801Z,20.08
2022-10-02T00:25:25.783Z,20.09
2022-10-02T00:25:35.799Z,20.08
2022-10-02T00:25:45.804Z,20.09
2022-10-02T00:25:55.803Z,20.09
2022-10-02T00:26:05.803Z,20.10
2022-10-02T00:26:15.804Z,20.10
2022-10-02T00:26:25.804Z,20.09
2022-10-02T00:26:36.179Z,20.08
2022-10-02T00:26:45.806Z,20.07
2022-10-02T00:26:55.812Z,20.08
2022-10-02T00:27:05.809Z,20.09
2022-10-02T00:27:15.794Z,20.09
2022-10-02T00:27:25.812Z,20.10
2022-10-02T00:27:35.815Z,20.07
2022-10-02T00:27:45.855Z,20.08
2022-10-02T00:27:55.954Z,20.08
2022-10-02T00:28:05.862Z,20.08
2022-10-02T00:28:15.913Z,20.10
2022-10-02T00:28:25.892Z,20.08
2022-10-02T00:28:35.819Z,20.09
2022-10-02T00:28:45.820Z,20.09
2022-10-02T00:28:55.821Z,20.08
2022-10-02T00:29:05.822Z,20.09
2022-10-02T00:29:15.827Z,20.07
2022-10-02T00:29:25.825Z,20.08
2022-10-02T00:29:35.827Z,20.10
2022-10-02T00:29:45.826Z,20.09
2022-10-02T00:29:55.828Z,20.10
2022-10-02T00:30:05.831Z,20.08
2022-10-02T00:30:15.812Z,20.09
2022-10-02T00:30:25.832Z,20.10
2022-10-02T00:30:35.834Z,20.09
2022-10-02T00:30:45.820Z,20.08
2022-10-02T00:30:55.833Z,20.08
2022-10-02T00:31:05.840Z,20.10
2022-10-02T00:31:15.896Z,20.09
2022-10-02T00:31:25.871Z,20.09
2022-10-02T00:31:35.852Z,20.09
2022-10-02T00:31:45.885Z,20.09
2022-10-02T00:31:55.878Z,20.09
2022-10-02T00:32:05.883Z,20.09
2022-10-02T00:32:15.844Z,20.07
2022-10-02T00:32:25.841Z,20.09
2022-10-02T00:32:35.841Z,20.10
2022-10-02T00:32:45.845Z,20.07
2022-10-02T00:32:55.847Z,20.10
2022-10-02T00:33:05.845Z,20.09
2022-10-02T00:33:15.846Z,20.09
2022-10-02T00:33:25.848Z,20.08
2022-10-02T00:33:35.849Z,20.08
2022-10-02T00:33:45.851Z,20.08
2022-10-02T00:33:55.852Z,20.09
2022-10-02T00:34:05.856Z,20.09
2022-10-02T00:34:15.853Z,20.08
2022-10-02T00:34:25.853Z,20.08
2022-10-02T00:34:35.853Z,20.08
2022-10-02T00:34:45.858Z,20.10
2022-10-02T00:34:55.856Z,20.09
2022-10-02T00:35:05.856Z,20.07
2022-10-02T00:35:15.863Z,20.06
2022-10-02T00:35:25.859Z,20.08
2022-10-02T00:35:35.858Z,20.09
2022-10-02T00:35:45.862Z,20.08
2022-10-02T00:35:55.860Z,20.10
2022-10-02T00:36:05.863Z,20.09
2022-10-02T00:36:15.862Z,20.07
2022-10-02T00:36:25.865Z,20.09
2022-10-02T00:36:36.137Z,20.08
2022-10-02T00:36:45.868Z,20.07
2022-10-02T00:36:55.865Z,20.09
2022-10-02T00:37:05.866Z,20.07
2022-10-02T00:37:15.867Z,20.08
2022-10-02T00:37:25.866Z,20.10
2022-10-02T00:37:35.866Z,20.07
2022-10-02T00:37:45.869Z,20.10
2022-10-02T00:37:55.871Z,20.07
2022-10-02T00:38:05.871Z,20.07
2022-10-02T00:38:15.872Z,20.10
2022-10-02T00:38:25.873Z,20.08
2022-10-02T00:38:35.872Z,20.08
2022-10-02T00:38:45.874Z,20.08
2022-10-02T00:38:55.885Z,20.07
2022-10-02T00:39:05.875Z,20.08
2022-10-02T00:39:15.878Z,20.09
2022-10-02T00:39:25.862Z,20.08
2022-10-02T00:39:35.880Z,20.09
2022-10-02T00:39:45.879Z,20.09
2022-10-02T00:39:55.881Z,20.08
2022-10-02T00:40:05.883Z,20.09
2022-10-02T00:40:15.891Z,20.07
2022-10-02T00:40:25.881Z,20.08
2022-10-02T00:40:35.883Z,20.09
2022-10-02T00:40:45.887Z,20.08
2022-10-02T00:40:55.884Z,20.07
2022-10-02T00:41:05.887Z,20.07
2022-10-02T00:41:15.892Z,20.08
2022-10-02T00:41:25.889Z,20.09
2022-10-02T00:41:35.889Z,20.08
2022-10-02T00:41:45.891Z,20.08
2022-10-02T00:41:55.889Z,20.06
2022-10-02T00:42:05.893Z,20.07
2022-10-02T00:42:15.898Z,20.07
2022-10-02T00:42:25.916Z,20.06
2022-10-02T00:42:35.899Z,20.07
2022-10-02T00:42:45.898Z,20.06
2022-10-02T00:42:55.900Z,20.08
2022-10-02T00:43:05.910Z,20.09
2022-10-02T00:43:15.920Z,20.06
2022-10-02T00:43:25.903Z,20.06
2022-10-02T00:43:35.903Z,20.07
2022-10-02T00:43:45.904Z,20.07
2022-10-02T00:43:55.904Z,20.07
2022-10-02T00:44:05.904Z,20.06
2022-10-02T00:44:15.920Z,20.07
2022-10-02T00:44:25.906Z,20.06
2022-10-02T00:44:35.907Z,20.05
2022-10-02T00:44:45.907Z,20.06
2022-10-02T00:44:55.908Z,20.06
2022-10-02T00:45:05.911Z,20.07
2022-10-02T00:45:15.913Z,20.05
2022-10-02T00:45:25.966Z,20.07
2022-10-02T00:45:35.960Z,20.05
2022-10-02T00:45:45.956Z,20.04
2022-10-02T00:45:56.020Z,20.05
2022-10-02T00:46:06.028Z,20.04
2022-10-02T00:46:15.961Z,20.05
2022-10-02T00:46:25.915Z,20.05
2022-10-02T00:46:36.249Z,20.05
2022-10-02T00:46:45.919Z,20.05
2022-10-02T00:46:55.921Z,20.06
2022-10-02T00:47:05.927Z,20.04
2022-10-02T00:47:15.918Z,20.05
2022-10-02T00:47:25.922Z,20.04
2022-10-02T00:47:35.922Z,20.02
2022-10-02T00:47:45.923Z,20.03
2022-10-02T00:47:55.926Z,20.03
2022-10-02T00:48:05.928Z,20.04
2022-10-02T00:48:15.943Z,20.05
2022-10-02T00:48:25.929Z,20.04
2022-10-02T00:48:35.928Z,20.03
2022-10-02T00:48:45.928Z,20.04
2022-10-02T00:48:55.941Z,20.03
2022-10-02T00:49:05.933Z,20.02
2022-10-02T00:49:15.938Z,20.03
2022-10-02T00:49:25.935Z,20.03
2022-10-02T00:49:35.934Z,20.03
2022-10-02T00:49:45.936Z,20.05
2022-10-02T00:49:55.935Z,20.02
2022-10-02T00:50:05.938Z,20.04
2022-10-02T00:50:15.942Z,20.03
2022-10-02T00:50:25.942Z,20.03
2022-10-02T00:50:35.941Z,20.03
2022-10-02T00:50:45.942Z,20.02
2022-10-02T00:50:55.942Z,20.02
2022-10-02T00:51:05.943Z,20.03
2022-10-02T00:51:15.943Z,20.03
2022-10-02T00:51:25.947Z,20.03
2022-10-02T00:51:35.946Z,20.03
2022-10-02T00:51:45.946Z,20.04
2022-10-02T00:51:55.948Z,20.03
2022-10-02T00:52:05.949Z,20.04
2022-10-02T00:52:15.948Z,20.02
2022-10-02T00:52:25.949Z,20.03
2022-10-02T00:52:35.948Z,20.02
2022-10-02T00:52:45.954Z,20.03
2022-10-02T00:52:55.953Z,20.02
2022-10-02T00:53:05.953Z,20.03
2022-10-02T00:53:15.953Z,20.00
2022-10-02T00:53:25.955Z,20.01
2022-10-02T00:53:35.955Z,20.02
2022-10-02T00:53:45.959Z,20.00
2022-10-02T00:53:55.958Z,20.02
2022-10-02T00:54:05.960Z,20.03
2022-10-02T00:54:15.984Z,20.02
2022-10-02T00:54:25.961Z,20.02
2022-10-02T00:54:35.960Z,20.01
2022-10-02T00:54:45.971Z,20.02
2022-10-02T00:54:55.962Z,20.01
2022-10-02T00:55:05.965Z,20.01
2022-10-02T00:55:15.964Z,20.00
2022-10-02T00:55:25.965Z,20.00
2022-10-02T00:55:35.965Z,20.01
2022-10-02T00:55:45.969Z,19.99
2022-10-02T00:55:55.967Z,20.00
2022-10-02T00:56:05.968Z,20.00
2022-10-02T00:56:15.970Z,20.00
2022-10-02T00:56:25.971Z,19.99
2022-10-02T00:56:36.286Z,20.00
2022-10-02T00:56:45.973Z,19.99
2022-10-02T00:56:55.973Z,20.00
2022-10-02T00:57:05.975Z,19.98
2022-10-02T00:57:15.979Z,20.00
2022-10-02T00:57:25.977Z,20.00
2022-10-02T00:57:35.977Z,19.97
2022-10-02T00:57:45.979Z,19.98
2022-10-02T00:57:55.985Z,19.99
2022-10-02T00:58:05.981Z,19.98
2022-10-02T00:58:15.982Z,19.99
2022-10-02T00:58:25.984Z,19.96
2022-10-02T00:58:35.981Z,19.97
2022-10-02T00:58:45.988Z,19.98
2022-10-02T00:58:55.986Z,19.98
2022-10-02T00:59:05.987Z,19.98
2022-10-02T00:59:15.987Z,19.98
2022-10-02T00:59:25.991Z,19.97
2022-10-02T00:59:35.989Z,19.98
2022-10-02T00:59:45.991Z,19.97
2022-10-02T00:59:55.992Z,19.98
2022-10-02T01:00:05.993Z,19.97
2022-10-02T01:00:15.995Z,19.96
2022-10-02T01:00:25.998Z,19.96
2022-10-02T01:00:36.050Z,19.96
2022-10-02T01:00:46.030Z,19.96
2022-10-02T01:00:56.045Z,19.96
2022-10-02T01:01:06.067Z,19.94
2022-10-02T01:01:16.064Z,19.96
2022-10-02T01:01:26.055Z,19.95
2022-10-02T01:01:36.003Z,19.96
2022-10-02T01:01:46.058Z,19.93
2022-10-02T01:01:56.030Z,19.95
2022-10-02T01:02:06.092Z,19.96
2022-10-02T01:02:16.063Z,19.96
2022-10-02T01:02:26.053Z,19.95
2022-10-02T01:02:36.010Z,19.95
2022-10-02T01:02:46.010Z,19.95
2022-10-02T01:02:56.012Z,19.95
2022-10-02T01:03:06.014Z,19.94
2022-10-02T01:03:16.010Z,19.96
2022-10-02T01:03:26.012Z,19.94
2022-10-02T01:03:36.015Z,19.94
2022-10-02T01:03:46.013Z,19.95
2022-10-02T01:03:56.015Z,19.95
2022-10-02T01:04:06.014Z,19.96
2022-10-02T01:04:16.015Z,19.95
2022-10-02T01:04:26.016Z,19.95
2022-10-02T01:04:36.018Z,19.94
2022-10-02T01:04:46.018Z,19.94
2022-10-02T01:04:56.018Z,19.93
2022-10-02T01:05:06.019Z,19.94
2022-10-02T01:05:16.023Z,19.95
2022-10-02T01:05:26.020Z,19.95
2022-10-02T01:05:36.023Z,19.94
2022-10-02T01:05:46.061Z,19.94
2022-10-02T01:05:56.024Z,19.94
2022-10-02T01:06:06.025Z,19.95
2022-10-02T01:06:16.024Z,19.94
2022-10-02T01:06:26.026Z,19.93
2022-10-02T01:06:36.352Z,19.94
2022-10-02T01:06:46.028Z,19.94
2022-10-02T01:06:56.027Z,19.95
2022-10-02T01:07:06.028Z,19.95
2022-10-02T01:07:16.033Z,19.93
2022-10-02T01:07:26.031Z,19.95
2022-10-02T01:07:36.031Z,19.94
2022-10-02T01:07:46.034Z,19.93
2022-10-02T01:07:56.039Z,19.92
2022-10-02T01:08:06.036Z,19.92
2022-10-02T01:08:16.035Z,19.92
2022-10-02T01:08:26.036Z,19.92
2022-10-02T01:08:36.036Z,19.92
2022-10-02T01:08:46.040Z,19.92
2022-10-02T01:08:56.021Z,19.93
2022-10-02T01:09:06.036Z,19.93
2022-10-02T01:09:16.041Z,19.92
2022-10-02T01:09:26.041Z,19.92
2022-10-02T01:09:36.039Z,19.92
2022-10-02T01:09:46.041Z,19.92
2022-10-02T01:09:56.041Z,19.91
2022-10-02T01:10:06.042Z,19.91
2022-10-02T01:10:16.044Z,19.92
2022-10-02T01:10:26.044Z,19.91
2022-10-02T01:10:36.046Z,19.92
2022-10-02T01:10:46.046Z,19.90
2022-10-02T01:10:56.049Z,19.92
2022-10-02T01:11:06.050Z,19.91
2022-10-02T01:11:16.050Z,19.91
2022-10-02T01:11:26.050Z,19.91
2022-10-02T01:11:36.052Z,19.92
2022-10-02T01:11:46.051Z,19.93
2022-10-02T01:11:56.052Z,19.91
2022-10-02T01:12:06.053Z,19.92
2022-10-02T01:12:16.054Z,19.91
2022-10-02T01:12:26.054Z,19.92
2022-10-02T01:12:36.058Z,19.91
2022-10-02T01:12:46.056Z,19.91
2022-10-02T01:12:56.057Z,19.93
2022-10-02T01:13:06.059Z,19.91
2022-10-02T01:13:16.058Z,19.91
2022-10-02T01:13:26.060Z,19.90
2022-10-02T01:13:36.060Z,19.91
2022-10-02T01:13:46.063Z,19.90
2022-10-02T01:13:56.063Z,19.90
2022-10-02T01:14:06.064Z,19.90
2022-10-02T01:14:16.065Z,19.91
2022-10-02T01:14:26.049Z,19.91
2022-10-02T01:14:36.069Z,19.89
2022-10-02T01:14:46.069Z,19.90
2022-10-02T01:14:56.073Z,19.89
2022-10-02T01:15:06.069Z,19.90
2022-10-02T01:15:16.070Z,19.90
2022-10-02T01:15:26.073Z,19.91
2022-10-02T01:15:36.074Z,19.91
2022-10-02T01:15:46.073Z,19.90
2022-10-02T01:15:56.075Z,19.92
2022-10-02T01:16:06.103Z,19.92
2022-10-02T01:16:16.108Z,19.94
2022-10-02T01:16:26.174Z,19.93
2022-10-02T01:16:36.334Z,19.91
2022-10-02T01:16:46.182Z,19.93
2022-10-02T01:16:56.120Z,19.93
2022-10-02T01:17:06.091Z,19.94
2022-10-02T01:17:16.083Z,19.92
2022-10-02T01:17:26.087Z,19.93
2022-10-02T01:17:36.083Z,19.93
2022-10-02T01:17:46.086Z,19.93
2022-10-02T01:17:56.088Z,19.90
2022-10-02T01:18:06.087Z,19.92
2022-10-02T01:18:16.087Z,19.92
2022-10-02T01:18:26.090Z,19.92
2022-10-02T01:18:36.094Z,19.92
2022-10-02T01:18:46.091Z,19.92
2022-10-02T01:18:56.092Z,19.92
2022-10-02T01:19:06.095Z,19.91
2022-10-02T01:19:16.093Z,19.92
2022-10-02T01:19:26.092Z,19.93
2022-10-02T01:19:36.096Z,19.93
2022-10-02T01:19:46.094Z,19.91
2022-10-02T01:19:56.095Z,19.93
2022-10-02T01:20:06.099Z,19.92
2022-10-02T01:20:16.097Z,19.93
2022-10-02T01:20:26.097Z,19.93
2022-10-02T01:20:36.099Z,19.94
2022-10-02T01:20:46.082Z,19.94
2022-10-02T01:20:56.103Z,19.93
2022-10-02T01:21:06.104Z,19.94
2022-10-02T01:21:16.106Z,19.93
2022-10-02T01:21:26.105Z,19.93
2022-10-02T01:21:36.109Z,19.93
2022-10-02T01:21:46.109Z,19.93
2022-10-02T01:21:56.107Z,19.92
2022-10-02T01:22:06.112Z,19.91
2022-10-02T01:22:16.111Z,19.92
2022-10-02T01:22:26.122Z,19.90
2022-10-02T01:22:36.114Z,19.91
2022-10-02T01:22:46.113Z,19.92
2022-10-02T01:22:56.112Z,19.91
2022-10-02T01:23:06.113Z,19.92
2022-10-02T01:23:16.115Z,19.93
2022-10-02T01:23:26.130Z,19.92
2022-10-02T01:23:36.118Z,19.94
2022-10-02T01:23:46.116Z,19.93
2022-10-02T01:23:56.121Z,19.91
2022-10-02T01:24:06.117Z,19.93
2022-10-02T01:24:16.122Z,19.93
2022-10-02T01:24:26.126Z,19.93
2022-10-02T01:24:36.122Z,19.92
2022-10-02T01:24:46.125Z,19.93
2022-10-02T01:24:56.106Z,19.92
2022-10-02T01:25:06.125Z,19.94
2022-10-02T01:25:16.126Z,19.92
2022-10-02T01:25:26.135Z,19.92
2022-10-02T01:25:36.126Z,19.91
2022-10-02T01:25:46.129Z,19.91
2022-10-02T01:25:56.159Z,19.94
2022-10-02T01:26:06.139Z,19.92
2022-10-02T01:26:16.133Z,19.93
2022-10-02T01:26:26.149Z,19.92
2022-10-02T01:26:36.458Z,19.91
2022-10-02T01:26:46.134Z,19.94
2022-10-02T01:26:56.117Z,19.92
2022-10-02T01:27:06.134Z,19.92
2022-10-02T01:27:16.139Z,19.92
2022-10-02T01:27:26.137Z,19.93
2022-10-02T01:27:39.174Z,19.91
2022-10-02T01:27:46.177Z,19.90
2022-10-02T01:27:56.175Z,19.91
2022-10-02T01:28:06.185Z,19.91
2022-10-02T01:28:16.198Z,19.90
2022-10-02T01:28:26.244Z,19.91
2022-10-02T01:28:36.147Z,19.90
2022-10-02T01:28:46.147Z,19.90
2022-10-02T01:28:56.148Z,19.89
2022-10-02T01:29:06.151Z,19.91
2022-10-02T01:29:16.149Z,19.91
2022-10-02T01:29:26.151Z,19.91
2022-10-02T01:29:36.150Z,19.91
2022-10-02T01:29:46.152Z,19.90
2022-10-02T01:29:56.161Z,19.92
2022-10-02T01:30:06.155Z,19.91
2022-10-02T01:30:16.140Z,19.91
2022-10-02T01:30:26.157Z,19.91
2022-10-02T01:30:36.157Z,19.91
2022-10-02T01:30:46.168Z,19.92
2022-10-02T01:30:56.161Z,19.91
2022-10-02T01:31:06.160Z,19.92
2022-10-02T01:31:16.302Z,19.92
2022-10-02T01:31:26.228Z,19.90
2022-10-02T01:31:36.197Z,19.91
2022-10-02T01:31:46.175Z,19.92
2022-10-02T01:31:56.196Z,19.91
2022-10-02T01:32:06.170Z,19.91
2022-10-02T01:32:16.166Z,19.91
2022-10-02T01:32:26.167Z,19.90
2022-10-02T01:32:36.167Z,19.92
2022-10-02T01:32:46.168Z,19.90
2022-10-02T01:32:56.169Z,19.90
2022-10-02T01:33:06.171Z,19.91
2022-10-02T01:33:16.171Z,19.90
2022-10-02T01:33:26.174Z,19.91
2022-10-02T01:33:36.172Z,19.91
2022-10-02T01:33:46.173Z,19.91
2022-10-02T01:33:56.183Z,19.91
2022-10-02T01:34:06.177Z,19.91
2022-10-02T01:34:16.175Z,19.90
2022-10-02T01:34:26.159Z,19.90
2022-10-02T01:34:36.176Z,19.91
2022-10-02T01:34:46.178Z,19.92
2022-10-02T01:34:56.182Z,19.91
2022-10-02T01:35:06.181Z,19.92
2022-10-02T01:35:16.182Z,19.91
2022-10-02T01:35:26.166Z,19.91
2022-10-02T01:35:36.185Z,19.91
2022-10-02T01:35:46.183Z,19.91
2022-10-02T01:35:56.187Z,19.90
2022-10-02T01:36:06.185Z,19.91
2022-10-02T01:36:16.168Z,19.91
2022-10-02T01:36:26.186Z,19.93
2022-10-02T01:36:36.416Z,19.91
2022-10-02T01:36:46.189Z,19.94
2022-10-02T01:36:56.193Z,19.92
2022-10-02T01:37:06.192Z,19.92
2022-10-02T01:37:16.195Z,19.92
2022-10-02T01:37:26.196Z,19.91
2022-10-02T01:37:36.195Z,19.93
2022-10-02T01:37:46.196Z,19.91
2022-10-02T01:37:56.179Z,19.90
2022-10-02T01:38:06.202Z,19.92
2022-10-02T01:38:16.198Z,19.90
2022-10-02T01:38:26.201Z,19.91
2022-10-02T01:38:36.200Z,19.90
2022-10-02T01:38:46.200Z,19.91
2022-10-02T01:38:56.201Z,19.90
2022-10-02T01:39:06.202Z,19.90
2022-10-02T01:39:16.205Z,19.91
2022-10-02T01:39:26.203Z,19.91
2022-10-02T01:39:36.203Z,19.92
2022-10-02T01:39:46.202Z,19.92
2022-10-02T01:39:56.203Z,19.91
2022-10-02T01:40:06.203Z,19.93
2022-10-02T01:40:16.204Z,19.91
2022-10-02T01:40:26.205Z,19.93
2022-10-02T01:40:36.206Z,19.92
2022-10-02T01:40:46.208Z,19.93
2022-10-02T01:40:56.211Z,19.93
2022-10-02T01:41:06.209Z,19.93
2022-10-02T01:41:16.210Z,19.94
2022-10-02T01:41:26.209Z,19.93
2022-10-02T01:41:36.212Z,19.95
2022-10-02T01:41:46.213Z,19.95
2022-10-02T01:41:56.214Z,19.94
2022-10-02T01:42:06.217Z,19.95
2022-10-02T01:42:16.214Z,19.94
2022-10-02T01:42:26.225Z,19.93
2022-10-02T01:42:36.216Z,19.95
2022-10-02T01:42:46.220Z,19.93
2022-10-02T01:42:56.255Z,19.94
2022-10-02T01:43:06.220Z,19.94
2022-10-02T01:43:16.220Z,19.94
2022-10-02T01:43:26.222Z,19.94
2022-10-02T01:43:36.221Z,19.96
2022-10-02T01:43:46.223Z,19.96
2022-10-02T01:43:56.228Z,19.95
2022-10-02T01:44:06.224Z,19.94
2022-10-02T01:44:16.227Z,19.95
2022-10-02T01:44:26.226Z,19.93
2022-10-02T01:44:36.225Z,19.94
2022-10-02T01:44:46.227Z,19.95
2022-10-02T01:44:56.228Z,19.94
2022-10-02T01:45:06.232Z,19.95
2022-10-02T01:45:16.230Z,19.94
2022-10-02T01:45:26.291Z,19.96
2022-10-02T01:45:36.242Z,19.95
2022-10-02T01:45:46.303Z,19.95
2022-10-02T01:45:56.269Z,19.94
2022-10-02T01:46:06.300Z,19.94
2022-10-02T01:46:16.368Z,19.94
2022-10-02T01:46:26.233Z,19.95
2022-10-02T01:46:36.605Z,19.93
2022-10-02T01:46:46.236Z,19.94
2022-10-02T01:46:56.236Z,19.94
2022-10-02T01:47:06.239Z,19.94
2022-10-02T01:47:16.238Z,19.94
2022-10-02T01:47:26.238Z,19.95
2022-10-02T01:47:36.238Z,19.95
2022-10-02T01:47:46.239Z,19.94
2022-10-02T01:47:56.239Z,19.95
2022-10-02T01:48:06.241Z,19.94
2022-10-02T01:48:16.241Z,19.96
2022-10-02T01:48:26.245Z,19.94
2022-10-02T01:48:36.244Z,19.94
2022-10-02T01:48:46.245Z,19.94
2022-10-02T01:48:56.244Z,19.95
2022-10-02T01:49:06.245Z,19.96
2022-10-02T01:49:16.246Z,19.96
2022-10-02T01:49:26.247Z,19.94
2022-10-02T01:49:36.248Z,19.95
2022-10-02T01:49:46.279Z,19.96
2022-10-02T01:49:56.251Z,19.95
2022-10-02T01:50:06.252Z,19.94
2022-10-02T01:50:16.253Z,19.95
2022-10-02T01:50:26.255Z,19.94
2022-10-02T01:50:36.254Z,19.96
2022-10-02T01:50:46.257Z,19.95
2022-10-02T01:50:56.261Z,19.94
2022-10-02T01:51:06.261Z,19.94
2022-10-02T01:51:16.258Z,19.94
2022-10-02T01:51:26.257Z,19.95
2022-10-02T01:51:36.258Z,19.94
2022-10-02T01:51:46.259Z,19.93
2022-10-02T01:51:56.258Z,19.94
2022-10-02T01:52:06.261Z,19.94
2022-10-02T01:52:16.263Z,19.94
2022-10-02T01:52:26.264Z,19.95
2022-10-02T01:52:36.269Z,19.96
2022-10-02T01:52:46.267Z,19.95
2022-10-02T01:52:56.269Z,19.92
2022-10-02T01:53:06.270Z,19.94
2022-10-02T01:53:16.268Z,19.94
2022-10-02T01:53:26.252Z,19.94
2022-10-02T01:53:36.268Z,19.95
2022-10-02T01:53:46.270Z,19.95
2022-10-02T01:53:56.271Z,19.96
2022-10-02T01:54:06.276Z,19.95
2022-10-02T01:54:16.282Z,19.97
2022-10-02T01:54:26.257Z,19.95
2022-10-02T01:54:36.277Z,19.94
2022-10-02T01:54:46.276Z,19.94
2022-10-02T01:54:56.278Z,19.95
2022-10-02T01:55:06.279Z,19.96
2022-10-02T01:55:16.279Z,19.95
2022-10-02T01:55:26.282Z,19.94
2022-10-02T01:55:36.282Z,19.95
2022-10-02T01:55:46.284Z,19.96
2022-10-02T01:55:56.286Z,19.96
2022-10-02T01:56:06.283Z,19.96
2022-10-02T01:56:16.286Z,19.97
2022-10-02T01:56:26.286Z,19.95
2022-10-02T01:56:36.603Z,19.96
2022-10-02T01:56:46.287Z,19.97
2022-10-02T01:56:56.289Z,19.95
2022-10-02T01:57:06.288Z,19.94
2022-10-02T01:57:16.291Z,19.97
2022-10-02T01:57:26.291Z,19.97
2022-10-02T01:57:36.290Z,19.96
2022-10-02T01:57:46.310Z,19.95
2022-10-02T01:57:56.291Z,19.94
2022-10-02T01:58:06.292Z,19.96
2022-10-02T01:58:16.297Z,19.98
2022-10-02T01:58:26.295Z,19.98
2022-10-02T01:58:36.296Z,19.98
2022-10-02T01:58:46.298Z,19.97
2022-10-02T01:58:56.299Z,19.97
2022-10-02T01:59:06.303Z,19.98
2022-10-02T01:59:16.299Z,19.98
2022-10-02T01:59:26.301Z,19.98
2022-10-02T01:59:36.301Z,19.97
2022-10-02T01:59:46.304Z,19.97
2022-10-02T01:59:56.303Z,19.98
2022-10-02T02:00:06.302Z,19.98
2022-10-02T02:00:16.304Z,19.98
2022-10-02T02:00:26.306Z,19.99
2022-10-02T02:00:36.326Z,19.98
2022-10-02T02:00:46.362Z,20.00
2022-10-02T02:00:56.364Z,19.97
2022-10-02T02:01:06.378Z,19.98
2022-10-02T02:01:16.347Z,19.97
2022-10-02T02:01:26.376Z,19.99
2022-10-02T02:01:36.310Z,19.99
2022-10-02T02:01:46.340Z,19.98
2022-10-02T02:01:56.354Z,19.99
2022-10-02T02:02:06.389Z,19.99
2022-10-02T02:02:16.364Z,19.98
2022-10-02T02:02:26.373Z,19.99
2022-10-02T02:02:36.391Z,19.98
2022-10-02T02:02:46.328Z,19.99
2022-10-02T02:02:56.320Z,19.98
2022-10-02T02:03:06.321Z,20.00
2022-10-02T02:03:16.322Z,19.99
2022-10-02T02:03:26.324Z,19.97
2022-10-02T02:03:36.304Z,19.98
2022-10-02T02:03:46.323Z,19.99
2022-10-02T02:03:56.324Z,20.00
2022-10-02T02:04:06.325Z,20.01
2022-10-02T02:04:16.325Z,20.00
2022-10-02T02:04:26.325Z,20.01
2022-10-02T02:04:36.327Z,20.00
2022-10-02T02:04:46.329Z,20.00
2022-10-02T02:04:56.328Z,19.99
2022-10-02T02:05:06.335Z,20.01
2022-10-02T02:05:16.330Z,20.00
2022-10-02T02:05:26.330Z,20.01
2022-10-02T02:05:36.333Z,20.01
2022-10-02T02:05:46.334Z,20.00
2022-10-02T02:05:56.336Z,19.99
2022-10-02T02:06:06.335Z,20.00
2022-10-02T02:06:16.337Z,19.98
2022-10-02T02:06:26.335Z,19.99
2022-10-02T02:06:36.629Z,20.01
2022-10-02T02:06:46.338Z,19.99
2022-10-02T02:06:56.336Z,20.00
2022-10-02T02:07:06.337Z,19.98
2022-10-02T02:07:16.339Z,19.99
2022-10-02T02:07:26.340Z,20.00
2022-10-02T02:07:36.339Z,20.00
2022-10-02T02:07:46.339Z,20.00
2022-10-02T02:07:56.341Z,19.99
2022-10-02T02:08:06.344Z,19.99
2022-10-02T02:08:16.342Z,19.99
2022-10-02T02:08:26.344Z,20.01
2022-10-02T02:08:36.345Z,20.00
2022-10-02T02:08:46.343Z,20.01